createdAt,value
2023-04-19T05:33:54.937Z,25.10
2023-04-19T05:40:29.780Z,24.58
2023-04-19T05:48:08.076Z,30.50
2023-04-19T05:55:45.736Z,31.88
2023-04-19T06:03:42.416Z,26.45
2023-04-19T06:06:10.202Z,26.33
2023-04-19T06:08:37.652Z,22.20
2023-04-19T06:14:02.778Z,26.52
2023-04-19T06:16:30.246Z,28.00
2023-04-19T06:18:57.969Z,24.55
2023-04-19T06:21:25.552Z,25.77
2023-04-19T06:23:53.090Z,24.75
2023-04-19T06:26:20.740Z,26.55
2023-04-19T06:28:48.166Z,25.77
2023-04-19T06:31:15.716Z,22.52
2023-04-19T06:33:43.936Z,28.83
2023-04-19T06:36:11.393Z,27.17
2023-04-19T06:38:38.912Z,24.08
2023-04-19T06:41:06.370Z,25.13
2023-04-19T06:43:33.943Z,28.55
2023-04-19T06:46:02.419Z,23.52
2023-04-19T06:48:30.116Z,30.55
2023-04-19T06:50:57.792Z,25.13
2023-04-19T06:53:25.195Z,25.17
2023-04-19T06:56:01.877Z,28.15
2023-04-19T06:58:31.800Z,24.20
2023-04-19T07:01:01.535Z,20.38
2023-04-19T07:03:29.632Z,20.75
2023-04-19T07:05:57.421Z,26.63
2023-04-19T07:08:34.973Z,22.00
2023-04-19T07:11:06.537Z,20.60
2023-04-19T07:13:33.963Z,22.35
2023-04-19T07:16:05.888Z,21.90
2023-04-19T07:18:33.381Z,19.65
2023-04-19T07:21:00.801Z,22.92
2023-04-19T07:23:28.201Z,23.70
2023-04-19T07:25:55.793Z,24.70
2023-04-19T07:28:23.366Z,25.48
2023-04-19T07:30:50.852Z,20.52
2023-04-19T07:33:18.404Z,21.33
2023-04-19T07:35:46.333Z,23.25
2023-04-19T07:38:13.828Z,20.13
2023-04-19T07:40:41.811Z,19.65
2023-04-19T07:43:09.228Z,20.55
2023-04-19T07:45:36.750Z,20.90
2023-04-19T07:48:04.533Z,21.25
2023-04-19T07:50:31.972Z,18.30
2023-04-19T07:52:59.384Z,19.23
2023-04-19T07:55:26.826Z,20.95
2023-04-19T07:57:54.198Z,18.55
2023-04-19T08:00:21.837Z,20.92
2023-04-19T08:02:50.187Z,17.42
2023-04-19T08:05:18.111Z,20.95
2023-04-19T08:07:46.087Z,21.58
2023-04-19T08:10:13.667Z,20.13
2023-04-19T08:12:53.631Z,24.48
2023-04-19T08:16:15.180Z,22.75
2023-04-19T08:18:16.734Z,19.80
2023-04-19T08:20:46.622Z,19.05
2023-04-19T08:23:22.868Z,15.85
2023-04-19T08:25:53.457Z,18.67
2023-04-19T08:28:20.927Z,18.98
2023-04-19T08:30:49.115Z,18.98
2023-04-19T08:33:16.594Z,18.08
2023-04-19T08:35:45.735Z,16.67
2023-04-19T08:38:13.172Z,17.00
2023-04-19T08:40:53.474Z,18.85
2023-04-19T08:43:22.031Z,16.23
2023-04-19T08:45:50.975Z,17.10
2023-04-19T08:48:19.341Z,18.63
2023-04-19T08:51:03.402Z,17.90
2023-04-19T08:53:35.901Z,18.75
2023-04-19T08:56:15.270Z,17.48
2023-04-19T08:59:03.979Z,19.70
2023-04-19T09:01:38.749Z,18.30
2023-04-19T09:04:21.589Z,17.52
2023-04-19T09:06:56.050Z,15.65
2023-04-19T09:09:38.761Z,19.15
2023-04-19T09:12:18.467Z,15.75
2023-04-19T09:17:18.587Z,17.65
2023-04-19T09:19:50.685Z,21.27
2023-04-19T09:22:18.955Z,14.82
2023-04-19T09:25:22.548Z,16.50
2023-04-19T09:27:37.496Z,15.02
2023-04-19T09:30:12.704Z,14.40
2023-04-19T09:32:49.662Z,17.10
2023-04-19T09:35:17.377Z,20.05
2023-04-19T09:38:06.146Z,19.52
2023-04-19T09:40:34.648Z,18.45
2023-04-19T09:43:17.960Z,20.15
2023-04-19T09:45:51.751Z,15.93
2023-04-19T09:48:19.193Z,17.35
2023-04-19T09:51:02.766Z,14.23
2023-04-19T09:53:35.746Z,15.60
2023-04-19T09:56:05.473Z,13.38
2023-04-19T10:03:48.934Z,12.07
2023-04-19T10:08:53.599Z,13.65
2023-04-19T10:11:27.076Z,14.30
2023-04-19T10:14:01.561Z,13.40
2023-04-19T10:16:31.420Z,14.25
2023-04-19T10:18:59.847Z,11.88
2023-04-19T10:21:29.244Z,13.07
2023-04-19T10:23:58.606Z,13.07
2023-04-19T10:26:26.617Z,14.52
2023-04-19T10:28:58.407Z,12.85
2023-04-19T10:31:27.100Z,15.07
2023-04-19T10:33:55.461Z,13.55
2023-04-19T10:36:22.946Z,14.82
2023-04-19T10:38:55.919Z,14.32
2023-04-19T10:41:23.494Z,12.52
2023-04-19T10:43:57.772Z,13.80
2023-04-19T10:46:26.337Z,16.63
2023-04-19T10:49:03.018Z,13.80
2023-04-19T10:51:47.693Z,15.25
2023-04-19T10:54:36.568Z,12.98
2023-04-19T10:57:10.332Z,12.38
2023-04-19T10:59:43.065Z,12.50
2023-04-19T11:02:22.901Z,12.48
2023-04-19T11:04:53.523Z,12.13
2023-04-19T11:07:24.056Z,12.10
2023-04-19T11:12:21.907Z,13.27
2023-04-19T11:15:00.098Z,12.27
2023-04-19T11:17:32.996Z,12.32
2023-04-19T11:20:10.970Z,13.40
2023-04-19T11:22:43.271Z,13.23
2023-04-19T11:25:22.348Z,12.00
2023-04-19T11:27:53.537Z,10.38
2023-04-19T11:30:29.977Z,9.93
2023-04-19T11:32:58.335Z,11.20
2023-04-19T11:35:29.128Z,12.32
2023-04-19T11:37:59.098Z,11.63
2023-04-19T11:40:27.178Z,11.68
2023-04-19T11:43:05.210Z,10.02
2023-04-19T11:45:39.978Z,11.02
2023-04-19T11:48:15.937Z,12.13
2023-04-19T11:50:45.854Z,9.98
2023-04-19T11:53:23.857Z,9.38
2023-04-19T11:56:03.857Z,11.35
2023-04-19T11:58:44.941Z,8.82
2023-04-19T12:01:16.612Z,8.60
2023-04-19T12:04:10.583Z,8.13
2023-04-19T12:06:38.133Z,9.77
2023-04-19T12:09:11.401Z,8.15
2023-04-19T12:11:50.106Z,6.90
2023-04-19T12:14:23.396Z,10.13
2023-04-19T12:17:13.541Z,10.00
2023-04-19T12:19:47.777Z,13.02
2023-04-19T12:22:23.811Z,7.53
2023-04-19T12:24:56.065Z,7.50
2023-04-19T12:27:23.542Z,8.43
2023-04-19T12:29:51.035Z,7.82
2023-04-19T12:32:18.606Z,9.85
2023-04-19T12:34:46.323Z,12.23
2023-04-19T12:37:13.709Z,9.05
2023-04-19T12:39:41.092Z,7.15
2023-04-19T12:42:08.733Z,19.30
2023-04-19T12:44:36.105Z,8.20
2023-04-19T12:47:03.718Z,10.55
2023-04-19T12:49:31.166Z,10.20
2023-04-19T12:51:58.579Z,8.65
2023-04-19T12:54:26.106Z,6.68
2023-04-19T12:56:53.804Z,10.63
2023-04-19T12:59:22.167Z,8.32
2023-04-19T13:01:50.176Z,11.63
2023-04-19T13:04:18.052Z,8.90
2023-04-19T13:06:46.043Z,6.63
2023-04-19T13:09:14.966Z,6.82
2023-04-19T13:11:42.727Z,8.88
2023-04-19T13:14:10.175Z,7.95
2023-04-19T13:16:37.559Z,7.03
2023-04-19T13:19:05.605Z,7.47
2023-04-19T13:21:33.071Z,6.57
2023-04-19T13:24:00.857Z,9.40
2023-04-19T13:26:28.913Z,6.75
2023-04-19T13:28:56.694Z,7.60
2023-04-19T13:31:26.651Z,8.65
2023-04-19T13:33:55.111Z,7.47
2023-04-19T13:36:22.825Z,6.20
2023-04-19T13:38:50.241Z,6.15
2023-04-19T13:41:17.655Z,6.50
2023-04-19T13:43:45.847Z,8.07
2023-04-19T13:46:13.615Z,6.30
2023-04-19T13:48:41.281Z,6.65
2023-04-19T13:51:09.075Z,6.47
2023-04-19T13:53:36.505Z,6.55
2023-04-19T13:56:04.677Z,6.75
2023-04-19T13:58:32.112Z,6.53
2023-04-19T14:00:59.613Z,6.57
2023-04-19T14:03:27.245Z,8.23
2023-04-19T14:05:54.865Z,7.05
2023-04-19T14:08:22.370Z,8.38
2023-04-19T14:10:51.158Z,11.07
2023-04-19T14:13:18.721Z,8.95
2023-04-19T14:15:46.753Z,8.60
2023-04-19T14:18:14.368Z,8.13
2023-04-19T14:20:41.996Z,8.73
2023-04-19T14:23:09.714Z,7.80
2023-04-19T14:25:37.333Z,7.93
2023-04-19T14:28:05.171Z,8.20
2023-04-19T14:30:32.763Z,6.28
2023-04-19T14:33:00.512Z,8.00
2023-04-19T14:35:28.431Z,7.80
2023-04-19T14:37:56.008Z,7.93
2023-04-19T14:40:24.104Z,8.85
2023-04-19T14:42:51.703Z,9.88
2023-04-19T14:45:19.437Z,7.35
2023-04-19T14:47:47.035Z,13.25
2023-04-19T14:50:14.826Z,7.68
2023-04-19T14:52:42.443Z,7.95
2023-04-19T14:55:11.434Z,11.13
2023-04-19T14:57:39.080Z,7.78
2023-04-19T15:00:08.123Z,8.35
2023-04-19T15:02:36.121Z,6.93
2023-04-19T15:05:04.331Z,7.07
2023-04-19T15:07:32.371Z,7.03
2023-04-19T15:10:00.031Z,7.25
2023-04-19T15:12:27.668Z,8.10
2023-04-19T15:14:55.309Z,8.73
2023-04-19T15:17:22.882Z,7.15
2023-04-19T15:19:50.425Z,9.68
2023-04-19T15:22:18.034Z,8.55
2023-04-19T15:24:45.899Z,9.38
2023-04-19T15:27:13.428Z,8.77
2023-04-19T15:29:41.513Z,7.93
2023-04-19T15:32:09.040Z,8.02
2023-04-19T15:34:36.632Z,7.63
2023-04-19T15:37:06.597Z,8.90
2023-04-19T15:39:34.206Z,9.10
2023-04-19T15:42:02.285Z,9.32
2023-04-19T15:44:30.425Z,9.88
2023-04-19T15:46:58.042Z,11.15
2023-04-19T15:49:25.734Z,7.35
2023-04-19T15:51:53.451Z,7.90
2023-04-19T15:54:23.075Z,10.40
2023-04-19T15:56:50.776Z,6.73
2023-04-19T15:59:18.558Z,7.72
2023-04-19T16:01:46.362Z,7.80
2023-04-19T16:04:14.280Z,10.02
2023-04-19T16:06:42.010Z,8.43
2023-04-19T16:09:09.642Z,8.68
2023-04-19T16:11:37.234Z,9.30
2023-04-19T16:14:04.812Z,10.57
2023-04-19T16:16:34.437Z,10.38
2023-04-19T16:19:02.187Z,10.05
2023-04-19T16:21:29.648Z,10.80
2023-04-19T16:23:57.197Z,10.27
2023-04-19T16:26:24.754Z,9.57
2023-04-19T16:28:52.456Z,11.57
2023-04-19T16:31:19.965Z,12.00
2023-04-19T16:33:47.355Z,10.52
2023-04-19T16:36:14.796Z,10.32
2023-04-19T16:38:42.323Z,10.73
2023-04-19T16:41:09.821Z,9.75
2023-04-19T16:43:37.242Z,10.50
2023-04-19T16:46:07.178Z,9.88
2023-04-19T16:48:34.777Z,8.95
2023-04-19T16:51:02.192Z,15.10
2023-04-19T16:53:31.496Z,10.45
2023-04-19T16:56:00.361Z,9.60
2023-04-19T16:58:27.831Z,9.57
2023-04-19T17:00:57.070Z,8.95
2023-04-19T17:03:24.640Z,11.15
2023-04-19T17:05:52.154Z,9.95
2023-04-19T17:08:21.524Z,9.70
2023-04-19T17:10:49.228Z,10.85
2023-04-19T17:13:16.745Z,10.25
2023-04-19T17:15:44.262Z,10.95
2023-04-19T17:18:11.751Z,9.45
2023-04-19T17:20:39.380Z,10.18
2023-04-19T17:23:06.983Z,11.48
2023-04-19T17:25:34.427Z,9.15
2023-04-19T17:28:01.929Z,10.90
2023-04-19T17:30:29.333Z,9.65
2023-04-19T17:32:56.791Z,10.27
2023-04-19T17:35:26.043Z,8.70
2023-04-19T17:37:53.510Z,11.15
2023-04-19T17:40:21.848Z,9.05
2023-04-19T17:42:49.255Z,10.35
2023-04-19T17:45:16.894Z,9.45
2023-04-19T17:47:44.521Z,8.90
2023-04-19T17:50:13.938Z,9.13
2023-04-19T17:52:41.403Z,10.35
2023-04-19T17:55:09.768Z,10.40
2023-04-19T17:57:37.194Z,11.30
2023-04-19T18:00:07.837Z,10.75
2023-04-19T18:02:35.522Z,10.15
2023-04-19T18:05:03.389Z,10.23
2023-04-19T18:07:30.929Z,12.55
2023-04-19T18:09:58.360Z,10.18
2023-04-19T18:12:26.035Z,11.15
2023-04-19T18:14:53.493Z,10.25
2023-04-19T18:17:21.642Z,13.23
2023-04-19T18:19:49.135Z,11.48
2023-04-19T18:22:16.559Z,9.60
2023-04-19T18:24:46.556Z,11.75
2023-04-19T18:27:15.147Z,10.80
2023-04-19T18:29:42.602Z,10.77
2023-04-19T18:32:10.104Z,10.38
2023-04-19T18:34:37.720Z,12.05
2023-04-19T18:37:16.692Z,14.25
2023-04-19T18:39:44.446Z,12.50
2023-04-19T18:42:12.342Z,11.38
2023-04-19T18:44:53.112Z,12.80
2023-04-19T18:47:22.928Z,11.88
2023-04-19T18:50:03.497Z,10.55
2023-04-19T18:52:33.187Z,12.07
2023-04-19T18:55:00.822Z,11.98
2023-04-19T18:57:30.445Z,11.25
2023-04-19T19:00:01.610Z,12.27
2023-04-19T19:02:29.457Z,11.68
2023-04-19T19:05:01.242Z,11.25
2023-04-19T19:07:36.659Z,12.60
2023-04-19T19:10:19.241Z,11.07
2023-04-19T19:12:49.558Z,13.50
2023-04-19T19:15:17.503Z,11.23
2023-04-19T19:17:49.369Z,10.52
2023-04-19T19:20:19.565Z,12.32
2023-04-19T19:22:48.545Z,12.82
2023-04-19T19:25:16.435Z,11.35
2023-04-19T19:27:58.359Z,11.93
2023-04-19T19:30:33.927Z,12.10
2023-04-19T19:33:03.006Z,16.08
2023-04-19T19:35:30.529Z,11.57
2023-04-19T19:37:57.935Z,10.52
2023-04-19T19:40:25.373Z,11.77
2023-04-19T19:42:52.932Z,12.50
2023-04-19T19:45:20.956Z,9.48
2023-04-19T19:47:50.063Z,10.27
2023-04-19T19:52:48.433Z,11.07
2023-04-19T19:55:15.893Z,10.13
2023-04-19T20:08:01.169Z,10.65
2023-04-19T20:10:29.622Z,7.90
2023-04-19T20:12:57.340Z,4.88
2023-04-19T20:15:25.114Z,5.63
2023-04-19T20:17:52.663Z,4.35
2023-04-19T20:20:20.973Z,3.38
2023-04-19T20:22:48.996Z,5.80
2023-04-19T20:25:16.689Z,7.18
2023-04-19T20:27:44.162Z,4.10
2023-04-19T20:30:13.915Z,4.68
2023-04-19T20:32:43.017Z,5.13
2023-04-19T20:35:12.622Z,4.75
2023-04-19T20:37:40.659Z,5.45
2023-04-19T20:40:14.630Z,4.35
2023-04-19T20:42:42.608Z,5.68
2023-04-19T20:45:10.720Z,5.05
2023-04-19T20:47:38.910Z,6.03
2023-04-19T20:50:08.803Z,6.40
2023-04-19T20:52:36.305Z,8.25
2023-04-19T20:55:04.049Z,4.85
2023-04-19T20:57:31.589Z,4.80
2023-04-19T21:00:00.588Z,6.30
2023-04-19T21:02:28.825Z,4.80
2023-04-19T21:04:56.554Z,5.75
2023-04-19T21:07:23.993Z,5.47
2023-04-19T21:09:51.425Z,5.30
2023-04-19T21:12:18.907Z,5.13
2023-04-19T21:14:49.411Z,5.85
2023-04-19T21:17:17.090Z,4.57
2023-04-19T21:19:44.568Z,5.40
2023-04-19T21:22:11.987Z,5.88
2023-04-19T21:24:39.484Z,5.40
2023-04-19T21:27:06.886Z,6.25
2023-04-19T21:29:34.400Z,7.60
2023-04-19T21:32:01.870Z,4.90
2023-04-19T21:34:29.306Z,8.48
2023-04-19T21:36:56.730Z,6.70
2023-04-19T21:39:24.254Z,5.13
2023-04-19T21:41:51.683Z,6.28
2023-04-19T21:44:19.090Z,6.03
2023-04-19T21:46:46.753Z,7.80
2023-04-19T21:49:14.502Z,5.90
2023-04-19T21:51:41.990Z,7.00
